Time;durP1;ratioP1;P1;durP2;ratioP2;P2;SDS_P1;SDS_P2;PMS_P1;PMS_P2;Temp;Humidity;BMP_temperature;BMP_pressure;BME280_temperature;BME280_humidity;BME280_pressure;Samples;Min_cycle;Max_cycle;Signal;HPM_P1;HPM_P2
2023/02/11 00:00:57;;;;;;;64.80;29.90;;;;;;;-2.09;75.99;100056.34;106739;1279;22642;-74
2023/02/11 00:03:25;;;;;;;70.80;30.90;;;;;;;-2.12;76.10;100052.77;106384;1284;139625;-74
2023/02/11 00:06:04;;;;;;;63.60;29.80;;;;;;;-2.14;76.23;100044.58;106853;1282;22552;-74
2023/02/11 00:08:31;;;;;;;69.00;30.40;;;;;;;-2.17;76.14;100035.60;106514;1284;25353;-74
2023/02/11 00:10:58;;;;;;;61.30;30.30;;;;;;;-2.20;76.24;100037.77;106222;1285;138389;-74
2023/02/11 00:13:26;;;;;;;62.60;30.10;;;;;;;-2.22;76.15;100033.52;106369;1277;24276;-74
2023/02/11 00:15:53;;;;;;;64.20;30.00;;;;;;;-2.24;76.42;100030.30;106289;1285;139532;-74
2023/02/11 00:18:21;;;;;;;66.20;29.90;;;;;;;-2.26;76.34;100024.63;106307;1285;22766;-74
2023/02/11 00:20:49;;;;;;;70.00;30.90;;;;;;;-2.29;76.49;100016.65;106325;1266;22873;-74
2023/02/11 00:23:16;;;;;;;72.20;32.00;;;;;;;-2.30;76.52;100011.76;106358;1276;139172;-74
2023/02/11 00:25:44;;;;;;;66.30;30.80;;;;;;;-2.31;76.85;100014.64;106637;1272;22545;-74
2023/02/11 00:28:11;;;;;;;69.70;30.00;;;;;;;-2.33;76.69;100008.59;106326;1276;139347;-74
2023/02/11 00:30:40;;;;;;;62.00;29.00;;;;;;;-2.35;76.80;100003.05;106325;1284;24250;-73
2023/02/11 00:33:08;;;;;;;71.60;31.50;;;;;;;-2.37;76.86;100002.14;106300;1284;24216;-74
2023/02/11 00:35:37;;;;;;;69.30;32.50;;;;;;;-2.39;76.69;100004.66;106197;1284;139001;-74
2023/02/11 00:38:04;;;;;;;73.90;31.90;;;;;;;-2.41;76.96;100010.35;106238;1285;25300;-74
2023/02/11 00:40:31;;;;;;;69.10;33.40;;;;;;;-2.45;77.11;100011.36;106127;1267;139356;-74
2023/02/11 00:42:58;;;;;;;66.60;33.20;;;;;;;-2.47;77.14;100017.02;106243;1284;24330;-73
2023/02/11 00:45:25;;;;;;;68.90;31.40;;;;;;;-2.49;77.11;100010.06;106207;1283;138862;-74
2023/02/11 00:47:52;;;;;;;64.80;30.20;;;;;;;-2.51;77.13;100003.46;106537;1283;22559;-74
2023/02/11 00:50:20;;;;;;;71.90;33.50;;;;;;;-2.56;77.26;99992.30;106308;1267;25280;-74
2023/02/11 00:52:48;;;;;;;69.30;32.10;;;;;;;-2.58;77.41;99988.00;106201;1283;139160;-74
2023/02/11 00:55:16;;;;;;;73.80;33.60;;;;;;;-2.60;77.42;99981.07;106469;1262;22694;-74
2023/02/11 00:57:43;;;;;;;66.80;32.30;;;;;;;-2.63;77.40;99976.30;106218;1277;139064;-74
2023/02/11 01:00:12;;;;;;;66.40;29.40;;;;;;;-2.64;77.57;99972.70;106230;1267;25462;-73
2023/02/11 01:02:39;;;;;;;69.70;30.80;;;;;;;-2.67;77.42;99968.09;106508;1283;22689;-73
2023/02/11 01:05:06;;;;;;;63.60;29.50;;;;;;;-2.69;77.59;99962.98;106176;1276;139099;-73
2023/02/11 01:07:33;;;;;;;63.10;28.80;;;;;;;-2.72;77.47;99952.69;106276;1278;25255;-73
2023/02/11 01:10:00;;;;;;;72.50;30.90;;;;;;;-2.74;77.51;99945.96;106103;1260;138799;-73
2023/02/11 01:12:30;;;;;;;;;;;;;;;-2.77;77.77;99942.79;106295;1284;25551;-73
2023/02/11 01:14:58;;;;;;;63.90;27.60;;;;;;;-2.80;77.74;99936.43;106421;1280;22953;-73
2023/02/11 01:17:25;;;;;;;72.80;30.00;;;;;;;-2.83;77.83;99929.39;106627;1276;139802;-73
2023/02/11 01:19:52;;;;;;;65.80;29.30;;;;;;;-2.85;77.83;99930.61;106275;1260;24250;-73
2023/02/11 01:22:19;;;;;;;69.40;30.00;;;;;;;-2.88;77.78;99931.54;106072;1284;139327;-72
2023/02/11 01:24:47;;;;;;;66.30;29.40;;;;;;;-2.89;77.85;99930.25;106350;1266;22551;-72
2023/02/11 01:27:14;;;;;;;69.50;29.90;;;;;;;-2.92;77.87;99931.70;106268;1284;22554;-72
2023/02/11 01:29:41;;;;;;;66.10;29.80;;;;;;;-2.94;78.02;99927.09;106092;1285;138241;-72
2023/02/11 01:32:08;;;;;;;69.00;31.00;;;;;;;-2.96;78.09;99924.00;106199;1267;22538;-72
2023/02/11 01:34:35;;;;;;;67.60;30.00;;;;;;;-2.97;78.36;99921.07;106210;1284;139233;-72
2023/02/11 01:37:02;;;;;;;67.20;28.80;;;;;;;-2.97;78.47;99911.83;106295;1283;22537;-72
2023/02/11 01:39:32;;;;;;;72.90;31.20;;;;;;;-2.96;78.70;99902.86;106299;1283;140870;-72
2023/02/11 01:42:00;;;;;;;69.50;31.10;;;;;;;-2.95;78.56;99900.16;106190;1270;22558;-72
2023/02/11 01:44:30;;;;;;;74.60;29.70;;;;;;;-2.95;78.51;99898.55;106293;1283;25091;-72
2023/02/11 01:46:58;;;;;;;68.90;28.30;;;;;;;-2.95;78.48;99891.46;106238;1283;138545;-72
2023/02/11 01:49:29;;;;;;;62.80;30.10;;;;;;;-2.96;78.60;99879.92;106334;1283;22698;-72
2023/02/11 01:52:08;;;;;;;67.20;31.30;;;;;;;-2.97;78.58;99870.61;106580;1267;139586;-72
2023/02/11 01:57:44;;;;;;;67.60;30.00;;;;;;;-2.98;78.58;99874.28;106039;1284;138552;-72
2023/02/11 02:00:33;;;;;;;65.20;31.10;;;;;;;-2.99;78.65;99873.30;106135;1285;22534;-72
2023/02/11 02:03:18;;;;;;;67.50;29.70;;;;;;;-3.00;78.52;99873.69;106222;1266;22566;-72
2023/02/11 02:06:13;;;;;;;77.20;32.60;;;;;;;-3.01;78.56;99868.48;106589;1283;138373;-72
2023/02/11 02:08:46;;;;;;;71.30;29.90;;;;;;;-3.01;78.63;99871.00;106521;1284;22965;-71
2023/02/11 02:11:13;;;;;;;66.00;29.70;;;;;;;-3.04;78.69;99877.40;106205;1262;139528;-72
2023/02/11 02:13:39;;;;;;;75.80;32.30;;;;;;;-3.05;78.84;99871.11;106379;1283;22580;-72
2023/02/11 02:16:12;;;;;;;70.70;30.60;;;;;;;-3.06;78.73;99864.80;106077;1283;138851;-72
2023/02/11 02:19:00;;;;;;;66.90;29.90;;;;;;;-3.08;78.80;99861.50;106586;1284;24394;-72
2023/02/11 02:21:55;;;;;;;66.80;30.60;;;;;;;-3.10;78.82;99860.80;106118;1260;140061;-72
2023/02/11 02:24:27;;;;;;;70.60;31.70;;;;;;;-3.10;78.98;99866.16;106345;1283;23906;-72
2023/02/11 02:27:29;;;;;;;71.40;31.60;;;;;;;-3.12;79.13;99870.58;106336;1283;24319;-72
2023/02/11 02:30:14;;;;;;;76.80;29.90;;;;;;;-3.12;79.06;99874.86;106182;1283;22564;-72
2023/02/11 02:33:06;;;;;;;66.60;29.80;;;;;;;-3.12;79.17;99882.14;106200;1280;25539;-72
2023/02/11 02:35:53;;;;;;;63.10;29.30;;;;;;;-3.11;79.18;99878.88;106105;1282;139110;-72
2023/02/11 02:38:26;;;;;;;67.10;30.10;;;;;;;-3.11;79.32;99865.84;106219;1285;22590;-72
2023/02/11 02:41:14;;;;;;;66.00;30.10;;;;;;;-3.09;79.39;99859.49;106403;1285;138975;-72
2023/02/11 02:43:46;;;;;;;73.40;32.40;;;;;;;-3.06;79.29;99851.08;106222;1267;22563;-72
2023/02/11 02:46:16;;;;;;;63.90;28.30;;;;;;;-3.04;79.21;99848.47;106252;1284;138468;-72
2023/02/11 02:48:44;;;;;;;67.40;30.40;;;;;;;-3.02;79.25;99840.11;106389;1283;25342;-72
2023/02/11 02:51:41;;;;;;;71.10;31.10;;;;;;;-3.00;79.25;99834.83;106387;1277;24267;-72
2023/02/11 02:54:41;;;;;;;68.70;30.40;;;;;;;-2.98;79.39;99825.57;106203;1265;25254;-72
2023/02/11 02:57:29;;;;;;;62.40;29.60;;;;;;;-2.95;79.32;99819.86;106265;1285;22550;-72
2023/02/11 03:00:12;;;;;;;71.40;31.00;;;;;;;-2.92;79.47;99816.75;106112;1285;22554;-72
2023/02/11 03:03:06;;;;;;;71.80;30.80;;;;;;;-2.91;79.42;99809.86;106200;1276;25289;-72
2023/02/11 03:05:46;;;;;;;63.00;28.10;;;;;;;-2.88;79.22;99800.58;106241;1276;139051;-72
2023/02/11 03:08:37;;;;;;;70.90;29.50;;;;;;;-2.86;79.59;99791.91;106406;1283;24294;-72
2023/02/11 03:11:05;;;;;;;70.00;33.10;;;;;;;-2.83;79.56;99789.00;106185;1283;140015;-72
2023/02/11 03:13:35;;;;;;;70.90;30.10;;;;;;;-2.81;79.36;99778.56;106329;1266;22570;-72
2023/02/11 03:16:16;;;;;;;69.30;30.20;;;;;;;-2.80;79.55;99767.06;106386;1264;138758;-72
2023/02/11 03:18:48;;;;;;;66.10;29.80;;;;;;;-2.79;79.50;99744.61;106238;1285;22679;-72
2023/02/11 03:21:17;;;;;;;71.60;31.30;;;;;;;-2.80;79.44;99737.76;106522;1277;25412;-72
2023/02/11 03:23:56;;;;;;;63.10;30.40;;;;;;;-2.79;79.58;99736.40;106110;1267;139617;-72
2023/02/11 03:26:39;;;;;;;67.80;32.00;;;;;;;-2.77;79.47;99731.48;106430;1280;22535;-72
2023/02/11 03:29:35;;;;;;;65.00;28.90;;;;;;;-2.75;79.71;99730.05;106373;1275;138449;-72
2023/02/11 03:32:14;;;;;;;67.50;30.10;;;;;;;-2.74;79.61;99721.10;106507;1284;24243;-71
2023/02/11 03:34:59;;;;;;;61.00;27.40;;;;;;;-2.73;79.57;99705.55;106231;1267;138799;-72
2023/02/11 03:37:26;;;;;;;64.20;28.90;;;;;;;-2.73;79.54;99699.27;106361;1283;25342;-72
2023/02/11 03:39:59;;;;;;;65.20;28.20;;;;;;;-2.72;79.51;99703.98;106123;1283;138562;-72
2023/02/11 03:42:32;;;;;;;62.80;28.20;;;;;;;-2.71;79.65;99697.58;106193;1283;26532;-72
2023/02/11 03:45:05;;;;;;;62.30;28.00;;;;;;;-2.71;79.52;99700.19;107385;1262;24399;-72
2023/02/11 03:47:37;;;;;;;55.30;24.90;;;;;;;-2.70;79.66;99708.69;106147;1263;138460;-72
2023/02/11 03:50:07;;;;;;;58.10;27.80;;;;;;;-2.71;79.62;99716.71;106205;1280;24388;-71
2023/02/11 03:52:37;;;;;;;62.80;28.20;;;;;;;-2.70;79.51;99716.52;106228;1280;139685;-72
2023/02/11 03:55:12;;;;;;;61.30;29.10;;;;;;;-2.70;79.52;99717.14;106292;1265;25412;-72
2023/02/11 03:57:39;;;;;;;61.80;29.00;;;;;;;-2.68;79.68;99721.84;106109;1283;138567;-72
2023/02/11 04:00:07;;;;;;;60.70;27.60;;;;;;;-2.66;79.70;99717.41;106255;1284;24213;-72
2023/02/11 04:02:41;;;;;;;57.20;27.60;;;;;;;-2.65;79.75;99706.29;106296;1284;22552;-72
2023/02/11 04:05:09;;;;;;;61.00;27.70;;;;;;;-2.63;79.64;99704.39;106131;1283;138628;-72
2023/02/11 04:07:36;;;;;;;58.60;27.70;;;;;;;-2.64;79.70;99693.58;106329;1268;25270;-72
2023/02/11 04:10:04;;;;;;;64.80;29.20;;;;;;;-2.62;79.68;99688.27;106100;1283;138761;-72
2023/02/11 04:12:31;;;;;;;70.90;30.10;;;;;;;-2.61;79.64;99677.01;106197;1283;25237;-72
2023/02/11 04:14:58;;;;;;;63.60;30.70;;;;;;;-2.61;79.62;99669.15;106236;1267;24291;-72
2023/02/11 04:17:25;;;;;;;61.20;29.40;;;;;;;-2.61;79.67;99667.02;106130;1282;138403;-72
2023/02/11 04:19:52;;;;;;;64.90;27.30;;;;;;;-2.60;79.60;99662.02;106455;1273;22531;-72
2023/02/11 04:22:18;;;;;;;63.10;30.00;;;;;;;-2.61;79.44;99657.83;106053;1283;138467;-72
2023/02/11 04:24:45;;;;;;;61.60;29.60;;;;;;;-2.62;79.57;99645.30;106146;1267;23901;-71
2023/02/11 04:27:12;;;;;;;57.60;27.80;;;;;;;-2.63;79.52;99640.91;106142;1285;24237;-72
2023/02/11 04:29:39;;;;;;;67.10;29.70;;;;;;;-2.63;79.73;99635.05;106156;1285;138937;-72
2023/02/11 04:32:08;;;;;;;62.50;29.50;;;;;;;-2.63;79.58;99625.66;106215;1269;23115;-72
2023/02/11 04:34:35;;;;;;;64.30;28.80;;;;;;;-2.65;79.64;99619.73;106310;1283;138358;-72
2023/02/11 04:37:02;;;;;;;61.60;28.10;;;;;;;-2.64;79.62;99620.60;106339;1281;22542;-72
2023/02/11 04:39:29;;;;;;;67.50;29.80;;;;;;;-2.65;79.66;99619.35;106370;1283;22540;-72
2023/02/11 04:41:56;;;;;;;65.90;30.00;;;;;;;-2.65;79.75;99611.89;106190;1283;22540;-71
2023/02/11 04:44:23;;;;;;;59.50;28.00;;;;;;;-2.64;79.70;99612.15;106212;1260;22556;-72
2023/02/11 04:46:50;;;;;;;56.40;28.10;;;;;;;-2.62;79.79;99616.80;106058;1283;139003;-72
2023/02/11 04:49:17;;;;;;;55.40;27.50;;;;;;;-2.62;79.73;99613.77;106146;1283;25058;-72
2023/02/11 04:51:44;;;;;;;55.40;26.40;;;;;;;-2.62;79.73;99616.41;106094;1285;138612;-72
2023/02/11 04:54:11;;;;;;;56.80;27.80;;;;;;;-2.61;79.83;99628.77;106182;1269;22571;-72
2023/02/11 04:56:38;;;;;;;55.40;26.70;;;;;;;-2.60;79.79;99639.92;106235;1265;22540;-72
2023/02/11 04:59:06;;;;;;;59.20;28.00;;;;;;;-2.60;79.85;99645.04;106241;1284;140099;-72
2023/02/11 05:01:33;;;;;;;55.70;27.30;;;;;;;-2.59;79.80;99634.64;106328;1283;23035;-72
2023/02/11 05:04:00;;;;;;;61.40;29.20;;;;;;;-2.57;79.89;99622.97;106192;1272;138884;-72
2023/02/11 05:06:27;;;;;;;57.50;28.50;;;;;;;-2.55;79.85;99622.45;106253;1267;22585;-72
2023/02/11 05:08:54;;;;;;;55.50;28.80;;;;;;;-2.54;79.91;99633.71;106161;1285;22541;-72
2023/02/11 05:11:23;;;;;;;60.00;27.60;;;;;;;-2.52;80.13;99635.80;106091;1282;138856;-72
2023/02/11 05:13:51;;;;;;;56.00;28.20;;;;;;;-2.50;79.85;99630.89;106193;1274;22544;-72
2023/02/11 05:16:18;;;;;;;53.60;26.20;;;;;;;-2.48;80.07;99624.50;106163;1266;138590;-72
2023/02/11 05:18:45;;;;;;;55.80;26.70;;;;;;;-2.46;80.03;99622.91;106235;1283;22548;-72
2023/02/11 05:21:15;;;;;;;50.70;25.50;;;;;;;-2.42;80.12;99617.10;106198;1283;26031;-72
2023/02/11 05:23:43;;;;;;;59.90;29.60;;;;;;;-2.39;80.18;99616.23;106207;1283;140820;-72
2023/02/11 05:26:11;;;;;;;56.20;26.10;;;;;;;-2.35;80.26;99623.70;106402;1268;24208;-71
2023/02/11 05:28:39;;;;;;;53.90;25.60;;;;;;;-2.31;79.89;99625.52;106270;1283;138870;-72
2023/02/11 05:31:06;;;;;;;55.10;24.20;;;;;;;-2.29;79.88;99626.90;106514;1284;24254;-72
2023/02/11 05:33:33;;;;;;;59.00;26.50;;;;;;;-2.26;79.91;99628.80;106184;1283;138552;-72
2023/02/11 05:36:03;;;;;;;55.10;25.70;;;;;;;-2.22;79.88;99634.88;106269;1265;25351;-72
2023/02/11 05:38:30;;;;;;;53.60;24.80;;;;;;;-2.18;79.85;99642.92;106337;1283;25555;-72
2023/02/11 05:40:57;;;;;;;53.10;26.00;;;;;;;-2.16;79.65;99638.21;106116;1284;140140;-72
2023/02/11 05:43:24;;;;;;;47.40;24.20;;;;;;;-2.14;79.61;99635.23;106328;1284;22583;-72
2023/02/11 05:45:51;;;;;;;49.70;24.60;;;;;;;-2.12;79.44;99637.17;106101;1267;138544;-72
2023/02/11 05:48:18;;;;;;;56.30;25.70;;;;;;;-2.11;79.42;99640.65;106362;1283;23384;-72
2023/02/11 05:50:45;;;;;;;52.00;24.30;;;;;;;-2.11;79.27;99638.91;106401;1283;22548;-72
2023/02/11 05:53:12;;;;;;;52.40;24.70;;;;;;;-2.10;79.48;99640.71;106264;1272;139345;-71
2023/02/11 05:55:39;;;;;;;48.50;24.00;;;;;;;-2.07;79.43;99641.39;106251;1261;24184;-72
2023/02/11 05:58:07;;;;;;;49.00;22.60;;;;;;;-2.06;79.38;99645.55;106121;1285;138554;-72
2023/02/11 06:00:34;;;;;;;51.20;23.30;;;;;;;-2.05;79.37;99639.94;106207;1285;25371;-72
2023/02/11 06:03:03;;;;;;;49.80;22.90;;;;;;;-2.03;79.40;99635.15;106147;1285;24294;-72
2023/02/11 06:05:30;;;;;;;44.50;20.50;;;;;;;-2.01;79.36;99629.81;106239;1277;140110;-72
2023/02/11 06:07:58;;;;;;;47.90;21.50;;;;;;;-1.99;79.34;99616.98;106328;1266;25366;-71
2023/02/11 06:10:25;;;;;;;46.10;22.50;;;;;;;-1.96;79.55;99601.26;106308;1261;139990;-72
2023/02/11 06:12:52;;;;;;;49.30;23.10;;;;;;;-1.94;79.48;99574.58;106273;1284;22559;-72
2023/02/11 06:15:19;;;;;;;55.60;24.30;;;;;;;-1.91;79.53;99552.44;106145;1284;23902;-71
2023/02/11 06:17:46;;;;;;;51.10;23.60;;;;;;;-1.90;79.36;99522.23;106199;1265;138994;-72
2023/02/11 06:20:13;;;;;;;51.80;25.90;;;;;;;-1.87;79.49;99500.67;106333;1284;24385;-71
2023/02/11 06:22:40;;;;;;;48.90;23.40;;;;;;;-1.86;79.36;99500.61;106219;1278;138988;-72
2023/02/11 06:25:07;;;;;;;52.10;24.90;;;;;;;-1.85;79.33;99502.21;106390;1281;22588;-72
2023/02/11 06:27:34;;;;;;;53.10;24.80;;;;;;;-1.84;79.47;99509.11;106123;1267;138580;-72
2023/02/11 06:30:01;;;;;;;57.40;26.90;;;;;;;-1.84;79.21;99519.54;106180;1285;22556;-72
2023/02/11 06:32:28;;;;;;;50.90;25.30;;;;;;;-1.83;79.30;99514.11;106254;1284;24307;-72
2023/02/11 06:34:55;;;;;;;50.90;25.60;;;;;;;-1.82;79.42;99514.02;106074;1285;139104;-71
2023/02/11 06:37:22;;;;;;;54.20;25.70;;;;;;;-1.80;79.40;99521.37;106117;1268;24278;-71
2023/02/11 06:39:48;;;;;;;55.90;24.90;;;;;;;-1.79;79.52;99523.95;106287;1283;139325;-71
2023/02/11 06:42:15;;;;;;;51.00;22.80;;;;;;;-1.79;79.49;99515.75;106338;1278;22808;-71
2023/02/11 06:44:43;;;;;;;48.60;23.40;;;;;;;-1.79;79.34;99509.52;106400;1281;26650;-71
2023/02/11 06:47:11;;;;;;;46.60;23.60;;;;;;;-1.76;79.40;99515.33;106233;1268;139163;-71
2023/02/11 06:49:38;;;;;;;49.20;25.80;;;;;;;-1.74;79.73;99518.95;106252;1285;24345;-71
2023/02/11 06:52:05;;;;;;;47.80;23.80;;;;;;;-1.69;79.67;99524.83;106093;1270;138568;-71
2023/02/11 06:54:32;;;;;;;50.50;24.10;;;;;;;-1.65;79.34;99542.04;106238;1284;25467;-71
2023/02/11 06:56:59;;;;;;;44.60;23.20;;;;;;;-1.60;79.47;99551.19;106264;1262;268636;-71
2023/02/11 06:59:26;;;;;;;44.90;23.60;;;;;;;-1.55;79.17;99547.35;106209;1283;138562;-71
2023/02/11 07:01:53;;;;;;;49.20;23.30;;;;;;;-1.49;79.34;99546.29;106259;1281;22542;-71
2023/02/11 07:04:21;;;;;;;49.00;23.90;;;;;;;-1.40;78.84;99550.44;106155;1283;139507;-72
2023/02/11 07:06:48;;;;;;;42.90;22.20;;;;;;;-1.33;79.08;99549.65;106360;1269;24303;-72
2023/02/11 07:09:15;;;;;;;45.70;23.70;;;;;;;-1.26;78.75;99548.97;106181;1267;22555;-71
2023/02/11 07:11:42;;;;;;;52.50;24.80;;;;;;;-1.18;78.69;99545.42;106111;1285;139008;-71
2023/02/11 07:14:09;;;;;;;47.40;23.80;;;;;;;-1.11;78.59;99554.95;106215;1284;22629;-72
2023/02/11 07:16:37;;;;;;;44.00;22.90;;;;;;;-1.05;78.72;99550.82;106008;1285;138813;-71
2023/02/11 07:19:04;;;;;;;46.50;21.70;;;;;;;-1.01;78.23;99552.00;106307;1283;22565;-71
2023/02/11 07:21:32;;;;;;;44.80;23.40;;;;;;;-0.97;78.34;99548.57;106183;1283;138496;-72
2023/02/11 07:24:00;;;;;;;44.20;22.70;;;;;;;-0.91;78.13;99547.23;106250;1280;22685;-72
2023/02/11 07:26:27;;;;;;;42.30;21.40;;;;;;;-0.86;78.01;99543.90;106326;1283;25341;-72
2023/02/11 07:28:55;;;;;;;45.10;18.60;;;;;;;-0.82;77.76;99529.89;106051;1267;140137;-72
2023/02/11 07:31:25;;;;;;;38.50;20.40;;;;;;;-0.77;78.05;99530.36;106360;1284;22574;-72
2023/02/11 07:33:55;;;;;;;39.60;20.00;;;;;;;-0.72;77.66;99523.66;106279;1283;138599;-72
2023/02/11 07:36:22;;;;;;;35.70;18.50;;;;;;;-0.67;77.42;99519.03;106631;1278;24237;-72
2023/02/11 07:38:49;;;;;;;33.10;17.10;;;;;;;-0.61;77.48;99510.64;106744;1265;23916;-72
2023/02/11 07:41:19;;;;;;;36.10;17.50;;;;;;;-0.56;77.27;99502.65;106344;1278;139511;-72
2023/02/11 07:43:47;;;;;;;31.50;15.70;;;;;;;-0.51;77.42;99498.80;106496;1282;24175;-73
2023/02/11 07:46:21;;;;;;;35.50;15.80;;;;;;;-0.46;77.01;99499.17;106556;1278;139563;-72
2023/02/11 07:48:48;;;;;;;25.60;13.70;;;;;;;-0.40;76.69;99504.89;107016;1265;23769;-72
2023/02/11 07:51:24;;;;;;;26.50;14.00;;;;;;;-0.34;76.82;99513.39;106634;1283;22560;-72
2023/02/11 07:53:52;;;;;;;28.50;13.80;;;;;;;-0.26;76.52;99509.27;106471;1278;139158;-72
2023/02/11 07:56:20;;;;;;;30.90;14.90;;;;;;;-0.19;76.35;99502.52;106512;1284;25493;-72
2023/02/11 07:58:49;;;;;;;25.40;12.80;;;;;;;-0.12;76.23;99502.73;106809;1260;138395;-73
2023/02/11 08:01:19;;;;;;;26.10;13.80;;;;;;;-0.06;76.06;99497.61;106884;1277;25383;-72
2023/02/11 08:03:45;;;;;;;29.10;14.60;;;;;;;0.01;75.76;99497.83;106273;1281;138909;-73
2023/02/11 08:06:15;;;;;;;31.30;14.70;;;;;;;0.08;75.60;99500.17;106544;1276;22582;-73
2023/02/11 08:08:42;;;;;;;23.90;12.60;;;;;;;0.16;75.33;99496.36;106385;1267;24279;-73
2023/02/11 08:11:16;;;;;;;30.30;14.40;;;;;;;0.23;75.14;99496.06;106250;1282;138802;-73
2023/02/11 08:13:44;;;;;;;29.50;14.40;;;;;;;0.29;74.64;99490.77;106629;1280;22557;-72
2023/02/11 08:16:21;;;;;;;29.20;14.10;;;;;;;0.35;74.57;99484.09;106290;1284;138426;-73
2023/02/11 08:18:50;;;;;;;28.10;14.40;;;;;;;0.43;74.24;99482.95;106400;1268;22558;-73
2023/02/11 08:21:17;;;;;;;27.70;14.20;;;;;;;0.51;73.94;99477.66;106473;1282;22678;-73
2023/02/11 08:23:45;;;;;;;33.80;15.20;;;;;;;0.59;73.85;99482.65;106603;1283;139159;-73
2023/02/11 08:26:15;;;;;;;26.00;14.40;;;;;;;0.67;73.77;99476.30;106557;1278;25236;-73
2023/02/11 08:28:44;;;;;;;27.90;14.40;;;;;;;0.73;73.28;99475.58;106411;1261;138213;-73
2023/02/11 08:31:15;;;;;;;26.20;12.40;;;;;;;0.81;73.02;99476.64;106420;1285;22976;-73
2023/02/11 08:33:43;;;;;;;26.60;13.50;;;;;;;0.87;72.82;99482.42;106256;1281;139516;-74
2023/02/11 08:36:16;;;;;;;27.70;14.40;;;;;;;0.94;72.90;99482.23;106387;1277;22561;-73
2023/02/11 08:38:43;;;;;;;27.80;14.10;;;;;;;1.03;72.55;99481.35;106682;1277;22681;-74
2023/02/11 08:41:10;;;;;;;30.60;15.90;;;;;;;1.12;72.36;99481.63;106654;1259;143706;-74
2023/02/11 08:43:40;;;;;;;30.40;14.80;;;;;;;1.22;72.19;99485.61;106509;1277;23601;-74
2023/02/11 08:46:08;;;;;;;27.70;13.60;;;;;;;1.33;71.73;99494.89;106458;1283;137917;-74
2023/02/11 08:48:35;;;;;;;27.40;15.00;;;;;;;1.41;70.98;99492.62;106486;1282;22662;-74
2023/02/11 08:51:13;;;;;;;27.90;14.30;;;;;;;1.48;70.34;99486.47;106492;1267;23377;-72
2023/02/11 08:53:39;;;;;;;28.30;14.40;;;;;;;1.59;70.11;99486.42;106354;1277;138551;-74
2023/02/11 08:56:09;;;;;;;27.50;13.90;;;;;;;1.70;70.00;99488.52;106677;1277;25327;-74
2023/02/11 08:58:36;;;;;;;;;;;;;;;1.80;69.40;99484.09;106295;1284;139538;-74
2023/02/11 09:01:18;;;;;;;29.80;14.70;;;;;;;1.88;68.86;99476.08;106386;1265;22774;-74
2023/02/11 09:03:46;;;;;;;28.00;15.00;;;;;;;1.98;68.66;99477.14;106228;1284;138293;-74
2023/02/11 09:06:14;;;;;;;30.40;15.60;;;;;;;2.08;68.60;99476.09;106468;1283;22568;-74
2023/02/11 09:08:43;;;;;;;33.90;16.80;;;;;;;2.23;68.43;99473.39;106230;1284;22558;-74
2023/02/11 09:11:10;;;;;;;26.80;14.40;;;;;;;2.44;68.50;99472.41;106267;1267;137777;-73
2023/02/11 09:13:39;;;;;;;28.20;15.00;;;;;;;2.66;67.70;99469.78;106310;1284;26567;-74
2023/02/11 09:16:06;;;;;;;31.00;16.10;;;;;;;2.83;67.37;99463.41;106392;1278;137725;-74
2023/02/11 09:18:33;;;;;;;29.50;15.00;;;;;;;3.00;66.36;99462.64;106492;1281;22547;-74
2023/02/11 09:21:05;;;;;;;32.20;15.30;;;;;;;3.09;65.75;99466.05;106363;1265;22625;-73
2023/02/11 09:23:33;;;;;;;29.60;15.40;;;;;;;3.22;65.54;99464.11;106496;1275;137600;-73
2023/02/11 09:26:09;;;;;;;30.90;14.70;;;;;;;3.30;65.12;99464.27;106345;1283;24430;-73
2023/02/11 09:28:36;;;;;;;28.80;14.10;;;;;;;3.40;64.89;99471.75;106355;1284;137669;-73
2023/02/11 09:31:05;;;;;;;25.30;13.80;;;;;;;3.50;64.59;99474.44;106205;1267;22543;-73
2023/02/11 09:33:32;;;;;;;;;;;;;;;3.58;63.91;99469.50;106617;1283;137637;-72
2023/02/11 09:36:01;;;;;;;29.10;15.20;;;;;;;3.64;63.52;99460.51;106272;1283;25292;-72
2023/02/11 09:38:28;;;;;;;26.10;14.40;;;;;;;3.69;63.12;99458.27;106602;1284;24465;-72
2023/02/11 09:40:55;;;;;;;27.60;14.80;;;;;;;3.77;62.90;99469.92;106090;1266;137596;-72
2023/02/11 09:43:45;;;;;;;30.90;16.20;;;;;;;3.84;62.78;99474.19;106279;1284;22660;-72
2023/02/11 09:46:16;;;;;;;27.50;14.10;;;;;;;3.92;63.01;99480.09;106244;1284;137754;-72
2023/02/11 09:48:46;;;;;;;29.60;16.00;;;;;;;3.97;61.83;99488.43;106340;1272;23014;-72
2023/02/11 09:51:35;;;;;;;28.30;15.00;;;;;;;3.96;61.96;99488.61;106343;1267;22546;-72
2023/02/11 09:54:06;;;;;;;;;;;;;;;3.96;61.56;99488.78;106488;1284;22553;-72
2023/02/11 09:56:33;;;;;;;25.40;13.80;;;;;;;3.96;61.53;99488.61;106418;1281;25110;-72
2023/02/11 09:59:00;;;;;;;28.10;13.80;;;;;;;3.98;61.59;99490.52;106251;1284;137553;-72
2023/02/11 10:01:56;;;;;;;30.40;15.30;;;;;;;4.00;61.32;99473.86;106334;1265;22571;-72
2023/02/11 10:04:29;;;;;;;29.40;14.80;;;;;;;4.07;61.02;99476.52;106376;1275;137550;-73
2023/02/11 10:07:11;;;;;;;31.30;16.60;;;;;;;4.09;60.84;99473.64;106444;1283;24071;-73
2023/02/11 10:09:38;;;;;;;28.20;16.60;;;;;;;4.10;60.91;99456.63;106119;1284;137639;-73
2023/02/11 10:12:43;;;;;;;29.80;16.00;;;;;;;4.13;61.05;99449.39;106245;1275;24303;-73
2023/02/11 10:15:20;;;;;;;29.50;14.80;;;;;;;4.18;60.68;99439.83;106257;1284;25447;-73
2023/02/11 10:17:58;;;;;;;29.30;15.50;;;;;;;4.18;60.44;99438.55;106148;1268;137517;-73
2023/02/11 10:20:37;;;;;;;29.00;17.10;;;;;;;4.17;60.74;99437.50;106216;1284;22648;-73
2023/02/11 10:23:25;;;;;;;33.10;16.70;;;;;;;4.18;60.84;99429.73;106780;1265;138649;-73
2023/02/11 10:25:55;;;;;;;29.40;17.10;;;;;;;4.26;60.72;99436.05;106357;1283;25418;-74
2023/02/11 10:28:23;;;;;;;;;;;;;;;4.30;61.03;99435.76;106328;1283;138874;-74
2023/02/11 10:30:58;;;;;;;31.80;16.40;;;;;;;4.29;60.56;99428.16;106387;1283;24451;-74
2023/02/11 10:33:31;;;;;;;33.80;16.30;;;;;;;4.27;60.70;99420.07;106242;1268;22659;-75
2023/02/11 10:35:59;;;;;;;29.00;16.80;;;;;;;4.33;60.68;99406.65;106372;1285;138061;-75
2023/02/11 10:38:27;;;;;;;32.00;17.30;;;;;;;4.43;60.95;99395.81;106191;1285;22584;-77
2023/02/11 10:40:53;;;;;;;32.30;17.00;;;;;;;4.61;61.22;99389.13;106123;1285;137683;-78
2023/02/11 10:43:26;;;;;;;34.90;18.00;;;;;;;4.85;61.33;99375.63;106412;1277;22547;-76
2023/02/11 10:45:55;;;;;;;31.50;16.80;;;;;;;5.12;60.81;99370.43;106299;1278;138274;-75
2023/02/11 10:48:43;;;;;;;35.30;17.60;;;;;;;5.36;59.94;99367.70;106563;1283;22539;-77
2023/02/11 10:51:34;;;;;;;33.40;17.40;;;;;;;5.45;58.55;99359.86;106215;1284;25402;-76
2023/02/11 10:54:05;;;;;;;34.60;17.40;;;;;;;5.44;58.50;99349.23;106282;1267;138701;-76
2023/02/11 10:56:35;;;;;;;30.80;17.50;;;;;;;5.41;58.33;99338.61;106261;1285;22545;-76
2023/02/11 10:59:33;;;;;;;32.50;17.60;;;;;;;5.37;58.09;99334.24;106105;1285;138464;-77
2023/02/11 11:02:23;;;;;;;32.80;16.70;;;;;;;5.38;58.46;99322.82;106352;1283;23994;-77
2023/02/11 11:04:56;;;;;;;27.60;16.60;;;;;;;5.34;58.23;99313.48;106440;1284;137477;-77
2023/02/11 11:07:27;;;;;;;34.10;17.80;;;;;;;5.33;58.13;99312.59;106463;1278;24352;-76
2023/02/11 11:10:25;;;;;;;33.20;19.10;;;;;;;5.33;58.13;99303.36;106587;1284;139732;-77
2023/02/11 11:12:52;;;;;;;32.70;17.70;;;;;;;5.29;58.51;99290.31;106228;1269;22499;-77
2023/02/11 11:15:22;;;;;;;30.80;17.00;;;;;;;5.26;58.55;99285.63;106318;1283;22551;-76
2023/02/11 11:18:14;;;;;;;31.00;17.70;;;;;;;5.16;57.94;99289.98;106154;1271;138573;-76
2023/02/11 11:20:59;;;;;;;32.60;17.90;;;;;;;5.08;58.65;99293.30;106329;1283;22542;-75
2023/02/11 11:23:29;;;;;;;32.80;18.50;;;;;;;5.10;58.68;99295.91;106237;1271;139027;-75
2023/02/11 11:26:10;;;;;;;;;;;;;;;5.11;58.42;99311.21;106342;1284;25489;-75
2023/02/11 11:28:48;;;;;;;32.00;18.50;;;;;;;5.15;58.24;99307.59;106311;1283;125032;-75
2023/02/11 11:31:20;;;;;;;29.70;15.40;;;;;;;5.23;58.56;99300.71;106393;1281;25487;-74